sensor_id;sensor_type;location;lat;lon;timestamp;P1;durP1;ratioP1;P2;durP2;ratioP2
13432;SDS011;6789;47.678;9.158;2023-11-22T00:01:57;3.70;;;2.80;;
13432;SDS011;6789;47.678;9.158;2023-11-22T00:06:49;3.83;;;2.13;;
13432;SDS011;6789;47.678;9.158;2023-11-22T00:11:41;3.20;;;2.17;;
13432;SDS011;6789;47.678;9.158;2023-11-22T00:16:33;4.20;;;2.47;;
13432;SDS011;6789;47.678;9.158;2023-11-22T00:21:28;2.90;;;2.40;;
13432;SDS011;6789;47.678;9.158;2023-11-22T00:26:20;4.80;;;2.63;;
13432;SDS011;6789;47.678;9.158;2023-11-22T00:31:12;4.37;;;2.70;;
13432;SDS011;6789;47.678;9.158;2023-11-22T00:36:05;7.13;;;3.77;;
13432;SDS011;6789;47.678;9.158;2023-11-22T00:40:59;5.40;;;3.23;;
13432;SDS011;6789;47.678;9.158;2023-11-22T00:45:51;4.23;;;2.63;;
13432;SDS011;6789;47.678;9.158;2023-11-22T00:50:42;3.93;;;2.90;;
13432;SDS011;6789;47.678;9.158;2023-11-22T00:55:34;3.43;;;2.70;;
13432;SDS011;6789;47.678;9.158;2023-11-22T01:00:26;3.50;;;2.53;;
13432;SDS011;6789;47.678;9.158;2023-11-22T01:05:18;6.97;;;3.57;;
13432;SDS011;6789;47.678;9.158;2023-11-22T01:10:10;4.07;;;3.10;;
13432;SDS011;6789;47.678;9.158;2023-11-22T01:15:02;3.87;;;3.20;;
13432;SDS011;6789;47.678;9.158;2023-11-22T01:19:54;4.63;;;3.20;;
13432;SDS011;6789;47.678;9.158;2023-11-22T01:24:46;4.77;;;3.57;;
13432;SDS011;6789;47.678;9.158;2023-11-22T01:29:38;4.53;;;3.70;;
13432;SDS011;6789;47.678;9.158;2023-11-22T01:34:30;5.10;;;3.70;;
13432;SDS011;6789;47.678;9.158;2023-11-22T01:39:21;6.03;;;4.43;;
13432;SDS011;6789;47.678;9.158;2023-11-22T01:44:13;6.37;;;4.17;;
13432;SDS011;6789;47.678;9.158;2023-11-22T01:49:05;6.90;;;4.20;;
13432;SDS011;6789;47.678;9.158;2023-11-22T01:53:57;5.40;;;4.00;;
13432;SDS011;6789;47.678;9.158;2023-11-22T01:58:51;6.43;;;4.77;;
13432;SDS011;6789;47.678;9.158;2023-11-22T02:03:45;6.70;;;3.90;;
13432;SDS011;6789;47.678;9.158;2023-11-22T02:08:41;4.63;;;3.50;;
13432;SDS011;6789;47.678;9.158;2023-11-22T02:13:32;6.97;;;3.83;;
13432;SDS011;6789;47.678;9.158;2023-11-22T02:18:38;4.53;;;3.80;;
13432;SDS011;6789;47.678;9.158;2023-11-22T02:23:30;5.83;;;4.10;;
13432;SDS011;6789;47.678;9.158;2023-11-22T02:28:23;5.23;;;3.60;;
13432;SDS011;6789;47.678;9.158;2023-11-22T02:33:15;4.97;;;3.70;;
13432;SDS011;6789;47.678;9.158;2023-11-22T02:38:07;7.37;;;3.73;;
13432;SDS011;6789;47.678;9.158;2023-11-22T02:42:59;5.40;;;3.33;;
13432;SDS011;6789;47.678;9.158;2023-11-22T02:47:58;4.90;;;3.23;;
13432;SDS011;6789;47.678;9.158;2023-11-22T02:52:52;4.73;;;3.50;;
13432;SDS011;6789;47.678;9.158;2023-11-22T02:57:44;5.47;;;3.33;;
13432;SDS011;6789;47.678;9.158;2023-11-22T03:02:36;5.33;;;3.63;;
13432;SDS011;6789;47.678;9.158;2023-11-22T03:07:28;5.63;;;3.20;;
13432;SDS011;6789;47.678;9.158;2023-11-22T03:12:21;5.23;;;3.53;;
13432;SDS011;6789;47.678;9.158;2023-11-22T03:17:14;6.67;;;3.30;;
13432;SDS011;6789;47.678;9.158;2023-11-22T03:22:06;5.23;;;3.53;;
13432;SDS011;6789;47.678;9.158;2023-11-22T03:26:58;6.50;;;3.80;;
13432;SDS011;6789;47.678;9.158;2023-11-22T03:31:50;6.30;;;3.80;;
13432;SDS011;6789;47.678;9.158;2023-11-22T03:36:42;9.00;;;3.83;;
13432;SDS011;6789;47.678;9.158;2023-11-22T03:41:34;5.43;;;3.63;;
13432;SDS011;6789;47.678;9.158;2023-11-22T03:46:26;5.90;;;3.70;;
13432;SDS011;6789;47.678;9.158;2023-11-22T03:51:18;7.03;;;3.50;;
13432;SDS011;6789;47.678;9.158;2023-11-22T03:56:09;7.33;;;3.80;;
13432;SDS011;6789;47.678;9.158;2023-11-22T04:01:01;7.60;;;3.33;;
13432;SDS011;6789;47.678;9.158;2023-11-22T04:05:54;6.57;;;3.37;;
13432;SDS011;6789;47.678;9.158;2023-11-22T04:10:46;6.43;;;2.93;;
13432;SDS011;6789;47.678;9.158;2023-11-22T04:15:38;3.20;;;2.60;;
13432;SDS011;6789;47.678;9.158;2023-11-22T04:20:30;7.17;;;2.90;;
13432;SDS011;6789;47.678;9.158;2023-11-22T04:25:23;7.03;;;3.10;;
13432;SDS011;6789;47.678;9.158;2023-11-22T04:30:14;5.00;;;3.07;;
13432;SDS011;6789;47.678;9.158;2023-11-22T04:35:08;3.97;;;2.57;;
13432;SDS011;6789;47.678;9.158;2023-11-22T04:40:01;3.10;;;2.23;;
13432;SDS011;6789;47.678;9.158;2023-11-22T04:44:55;4.87;;;2.20;;
13432;SDS011;6789;47.678;9.158;2023-11-22T04:49:46;3.03;;;2.30;;
13432;SDS011;6789;47.678;9.158;2023-11-22T04:54:39;2.47;;;2.10;;
13432;SDS011;6789;47.678;9.158;2023-11-22T05:04:38;3.67;;;1.97;;
13432;SDS011;6789;47.678;9.158;2023-11-22T05:09:30;2.63;;;1.93;;
13432;SDS011;6789;47.678;9.158;2023-11-22T05:14:22;3.17;;;1.60;;
13432;SDS011;6789;47.678;9.158;2023-11-22T05:19:15;2.83;;;1.80;;
13432;SDS011;6789;47.678;9.158;2023-11-22T05:24:07;2.23;;;1.50;;
13432;SDS011;6789;47.678;9.158;2023-11-22T05:28:59;2.90;;;1.70;;
13432;SDS011;6789;47.678;9.158;2023-11-22T05:33:51;2.10;;;1.47;;
13432;SDS011;6789;47.678;9.158;2023-11-22T05:38:43;1.33;;;1.03;;
13432;SDS011;6789;47.678;9.158;2023-11-22T05:43:34;1.90;;;1.17;;
13432;SDS011;6789;47.678;9.158;2023-11-22T05:48:27;1.13;;;1.03;;
13432;SDS011;6789;47.678;9.158;2023-11-22T05:53:20;2.00;;;1.20;;
13432;SDS011;6789;47.678;9.158;2023-11-22T05:58:12;1.40;;;1.20;;
13432;SDS011;6789;47.678;9.158;2023-11-22T06:03:07;2.57;;;1.40;;
13432;SDS011;6789;47.678;9.158;2023-11-22T06:07:59;3.90;;;1.90;;
13432;SDS011;6789;47.678;9.158;2023-11-22T06:12:51;3.00;;;2.27;;
13432;SDS011;6789;47.678;9.158;2023-11-22T06:17:43;3.70;;;2.90;;
13432;SDS011;6789;47.678;9.158;2023-11-22T06:22:35;3.70;;;3.00;;
13432;SDS011;6789;47.678;9.158;2023-11-22T06:27:31;4.97;;;3.20;;
13432;SDS011;6789;47.678;9.158;2023-11-22T06:32:24;3.43;;;2.87;;
13432;SDS011;6789;47.678;9.158;2023-11-22T06:37:16;3.27;;;2.70;;
13432;SDS011;6789;47.678;9.158;2023-11-22T06:42:08;3.00;;;2.70;;
13432;SDS011;6789;47.678;9.158;2023-11-22T06:46:59;2.83;;;2.53;;
13432;SDS011;6789;47.678;9.158;2023-11-22T06:51:51;3.90;;;3.17;;
13432;SDS011;6789;47.678;9.158;2023-11-22T06:56:43;4.70;;;3.03;;
13432;SDS011;6789;47.678;9.158;2023-11-22T07:01:37;4.43;;;3.20;;
13432;SDS011;6789;47.678;9.158;2023-11-22T07:06:28;3.77;;;3.00;;
13432;SDS011;6789;47.678;9.158;2023-11-22T07:11:21;3.70;;;3.20;;
13432;SDS011;6789;47.678;9.158;2023-11-22T07:16:17;3.87;;;2.90;;
13432;SDS011;6789;47.678;9.158;2023-11-22T07:21:10;4.37;;;2.80;;
13432;SDS011;6789;47.678;9.158;2023-11-22T07:26:02;4.83;;;2.93;;
13432;SDS011;6789;47.678;9.158;2023-11-22T07:30:55;3.80;;;2.97;;
13432;SDS011;6789;47.678;9.158;2023-11-22T07:35:47;4.40;;;2.97;;
13432;SDS011;6789;47.678;9.158;2023-11-22T07:40:39;3.27;;;2.47;;
13432;SDS011;6789;47.678;9.158;2023-11-22T07:45:32;3.73;;;2.73;;
13432;SDS011;6789;47.678;9.158;2023-11-22T07:50:25;3.80;;;3.07;;
13432;SDS011;6789;47.678;9.158;2023-11-22T07:55:18;3.57;;;2.67;;
13432;SDS011;6789;47.678;9.158;2023-11-22T08:00:10;4.20;;;3.00;;
13432;SDS011;6789;47.678;9.158;2023-11-22T08:05:03;3.30;;;2.80;;
13432;SDS011;6789;47.678;9.158;2023-11-22T08:10:00;4.70;;;2.87;;
13432;SDS011;6789;47.678;9.158;2023-11-22T08:15:00;3.17;;;2.40;;
13432;SDS011;6789;47.678;9.158;2023-11-22T08:19:54;5.23;;;2.03;;
13432;SDS011;6789;47.678;9.158;2023-11-22T08:24:46;2.83;;;2.10;;
13432;SDS011;6789;47.678;9.158;2023-11-22T08:30:24;1.77;;;1.60;;
13432;SDS011;6789;47.678;9.158;2023-11-22T08:35:15;7.47;;;1.90;;
13432;SDS011;6789;47.678;9.158;2023-11-22T08:40:08;1.53;;;1.30;;
13432;SDS011;6789;47.678;9.158;2023-11-22T08:45:11;1.50;;;1.30;;
13432;SDS011;6789;47.678;9.158;2023-11-22T08:50:03;2.60;;;1.30;;
13432;SDS011;6789;47.678;9.158;2023-11-22T08:54:56;1.53;;;1.27;;
13432;SDS011;6789;47.678;9.158;2023-11-22T08:59:48;2.27;;;1.30;;
13432;SDS011;6789;47.678;9.158;2023-11-22T09:04:42;2.10;;;1.40;;
13432;SDS011;6789;47.678;9.158;2023-11-22T09:09:34;2.63;;;1.33;;
13432;SDS011;6789;47.678;9.158;2023-11-22T09:14:27;2.33;;;1.20;;
13432;SDS011;6789;47.678;9.158;2023-11-22T09:19:22;1.27;;;1.00;;
13432;SDS011;6789;47.678;9.158;2023-11-22T09:24:17;1.30;;;0.90;;
13432;SDS011;6789;47.678;9.158;2023-11-22T09:29:09;2.63;;;1.67;;
13432;SDS011;6789;47.678;9.158;2023-11-22T09:34:04;2.13;;;1.70;;
13432;SDS011;6789;47.678;9.158;2023-11-22T09:38:56;2.17;;;1.70;;
13432;SDS011;6789;47.678;9.158;2023-11-22T09:43:48;2.27;;;1.43;;
13432;SDS011;6789;47.678;9.158;2023-11-22T09:48:41;2.90;;;1.70;;
13432;SDS011;6789;47.678;9.158;2023-11-22T09:58:34;2.23;;;1.77;;
13432;SDS011;6789;47.678;9.158;2023-11-22T10:03:30;2.20;;;1.60;;
13432;SDS011;6789;47.678;9.158;2023-11-22T10:08:23;2.60;;;1.63;;
13432;SDS011;6789;47.678;9.158;2023-11-22T10:13:15;3.17;;;1.93;;
13432;SDS011;6789;47.678;9.158;2023-11-22T10:18:07;3.43;;;2.10;;
13432;SDS011;6789;47.678;9.158;2023-11-22T10:23:01;2.13;;;1.80;;
13432;SDS011;6789;47.678;9.158;2023-11-22T10:27:55;2.70;;;2.10;;
13432;SDS011;6789;47.678;9.158;2023-11-22T10:32:47;3.43;;;2.07;;
13432;SDS011;6789;47.678;9.158;2023-11-22T10:37:38;2.57;;;2.10;;
13432;SDS011;6789;47.678;9.158;2023-11-22T10:42:31;2.83;;;2.07;;
13432;SDS011;6789;47.678;9.158;2023-11-22T10:47:24;3.13;;;2.10;;
13432;SDS011;6789;47.678;9.158;2023-11-22T10:52:26;3.10;;;2.20;;
13432;SDS011;6789;47.678;9.158;2023-11-22T10:57:20;2.63;;;2.17;;
13432;SDS011;6789;47.678;9.158;2023-11-22T11:02:44;3.57;;;2.60;;
13432;SDS011;6789;47.678;9.158;2023-11-22T11:07:40;3.37;;;2.50;;
13432;SDS011;6789;47.678;9.158;2023-11-22T11:12:50;4.40;;;2.80;;
13432;SDS011;6789;47.678;9.158;2023-11-22T11:17:44;4.10;;;2.13;;
13432;SDS011;6789;47.678;9.158;2023-11-22T11:22:39;3.20;;;2.50;;
13432;SDS011;6789;47.678;9.158;2023-11-22T11:27:34;6.67;;;2.50;;
13432;SDS011;6789;47.678;9.158;2023-11-22T11:32:31;3.60;;;2.63;;
13432;SDS011;6789;47.678;9.158;2023-11-22T11:37:24;4.10;;;2.97;;
13432;SDS011;6789;47.678;9.158;2023-11-22T11:42:30;3.53;;;2.60;;
13432;SDS011;6789;47.678;9.158;2023-11-22T11:47:45;4.97;;;2.83;;
13432;SDS011;6789;47.678;9.158;2023-11-22T11:53:06;4.30;;;3.10;;
13432;SDS011;6789;47.678;9.158;2023-11-22T11:58:18;3.57;;;2.80;;
13432;SDS011;6789;47.678;9.158;2023-11-22T12:03:10;4.50;;;3.10;;
13432;SDS011;6789;47.678;9.158;2023-11-22T12:08:02;5.30;;;3.00;;
13432;SDS011;6789;47.678;9.158;2023-11-22T12:12:54;4.20;;;3.10;;
13432;SDS011;6789;47.678;9.158;2023-11-22T12:17:49;4.43;;;3.20;;
13432;SDS011;6789;47.678;9.158;2023-11-22T12:22:44;5.87;;;3.50;;
13432;SDS011;6789;47.678;9.158;2023-11-22T12:28:00;4.33;;;3.70;;
13432;SDS011;6789;47.678;9.158;2023-11-22T12:32:55;5.07;;;3.67;;
13432;SDS011;6789;47.678;9.158;2023-11-22T12:37:47;4.50;;;3.57;;
13432;SDS011;6789;47.678;9.158;2023-11-22T12:42:51;6.90;;;3.60;;
13432;SDS011;6789;47.678;9.158;2023-11-22T12:47:44;4.00;;;3.23;;
13432;SDS011;6789;47.678;9.158;2023-11-22T12:52:39;6.33;;;3.43;;
13432;SDS011;6789;47.678;9.158;2023-11-22T12:57:31;4.47;;;3.20;;
13432;SDS011;6789;47.678;9.158;2023-11-22T13:02:23;4.27;;;3.20;;
13432;SDS011;6789;47.678;9.158;2023-11-22T13:07:15;5.30;;;3.53;;
13432;SDS011;6789;47.678;9.158;2023-11-22T13:12:07;5.03;;;2.87;;
13432;SDS011;6789;47.678;9.158;2023-11-22T13:16:59;5.23;;;3.07;;
13432;SDS011;6789;47.678;9.158;2023-11-22T13:21:51;4.83;;;2.93;;
13432;SDS011;6789;47.678;9.158;2023-11-22T13:26:43;3.27;;;2.43;;
13432;SDS011;6789;47.678;9.158;2023-11-22T13:31:35;3.07;;;2.20;;
13432;SDS011;6789;47.678;9.158;2023-11-22T13:36:27;3.53;;;2.70;;
13432;SDS011;6789;47.678;9.158;2023-11-22T13:41:19;5.57;;;2.60;;
13432;SDS011;6789;47.678;9.158;2023-11-22T13:46:10;3.40;;;2.80;;
13432;SDS011;6789;47.678;9.158;2023-11-22T13:51:03;3.10;;;2.33;;
13432;SDS011;6789;47.678;9.158;2023-11-22T13:55:58;3.70;;;2.33;;
13432;SDS011;6789;47.678;9.158;2023-11-22T14:00:52;4.33;;;2.67;;
13432;SDS011;6789;47.678;9.158;2023-11-22T14:05:45;4.67;;;2.43;;
13432;SDS011;6789;47.678;9.158;2023-11-22T14:10:37;3.70;;;2.43;;
13432;SDS011;6789;47.678;9.158;2023-11-22T14:15:29;4.27;;;2.53;;
13432;SDS011;6789;47.678;9.158;2023-11-22T14:20:20;4.33;;;2.67;;
13432;SDS011;6789;47.678;9.158;2023-11-22T14:25:12;3.70;;;2.83;;
13432;SDS011;6789;47.678;9.158;2023-11-22T14:30:07;3.43;;;2.60;;
13432;SDS011;6789;47.678;9.158;2023-11-22T14:35:02;3.00;;;2.50;;
13432;SDS011;6789;47.678;9.158;2023-11-22T14:39:56;4.43;;;2.90;;
13432;SDS011;6789;47.678;9.158;2023-11-22T14:44:48;4.33;;;3.17;;
13432;SDS011;6789;47.678;9.158;2023-11-22T14:49:40;5.33;;;3.50;;
13432;SDS011;6789;47.678;9.158;2023-11-22T14:54:37;5.43;;;3.37;;
13432;SDS011;6789;47.678;9.158;2023-11-22T14:59:29;6.53;;;3.30;;
13432;SDS011;6789;47.678;9.158;2023-11-22T15:04:25;5.10;;;3.27;;
13432;SDS011;6789;47.678;9.158;2023-11-22T15:09:17;6.37;;;3.60;;
13432;SDS011;6789;47.678;9.158;2023-11-22T15:14:09;6.03;;;3.37;;
13432;SDS011;6789;47.678;9.158;2023-11-22T15:19:02;7.40;;;4.00;;
13432;SDS011;6789;47.678;9.158;2023-11-22T15:23:54;5.53;;;4.13;;
13432;SDS011;6789;47.678;9.158;2023-11-22T15:28:49;5.37;;;4.50;;
13432;SDS011;6789;47.678;9.158;2023-11-22T15:33:41;5.40;;;4.00;;
13432;SDS011;6789;47.678;9.158;2023-11-22T15:38:33;7.07;;;4.60;;
13432;SDS011;6789;47.678;9.158;2023-11-22T15:43:26;8.20;;;4.97;;
13432;SDS011;6789;47.678;9.158;2023-11-22T15:48:18;7.17;;;4.93;;
13432;SDS011;6789;47.678;9.158;2023-11-22T15:53:10;9.20;;;5.87;;
13432;SDS011;6789;47.678;9.158;2023-11-22T15:58:04;9.27;;;6.37;;
13432;SDS011;6789;47.678;9.158;2023-11-22T16:02:56;10.27;;;6.80;;
13432;SDS011;6789;47.678;9.158;2023-11-22T16:07:49;9.33;;;5.97;;
13432;SDS011;6789;47.678;9.158;2023-11-22T16:12:41;10.30;;;5.20;;
13432;SDS011;6789;47.678;9.158;2023-11-22T16:17:33;10.00;;;5.97;;
13432;SDS011;6789;47.678;9.158;2023-11-22T16:22:27;9.00;;;6.07;;
13432;SDS011;6789;47.678;9.158;2023-11-22T16:27:19;8.90;;;5.87;;
13432;SDS011;6789;47.678;9.158;2023-11-22T16:32:13;9.53;;;6.03;;
13432;SDS011;6789;47.678;9.158;2023-11-22T16:37:04;7.83;;;5.60;;
13432;SDS011;6789;47.678;9.158;2023-11-22T16:41:56;9.73;;;6.10;;
13432;SDS011;6789;47.678;9.158;2023-11-22T16:46:48;10.07;;;6.50;;
13432;SDS011;6789;47.678;9.158;2023-11-22T16:51:40;10.20;;;6.40;;
13432;SDS011;6789;47.678;9.158;2023-11-22T16:56:35;8.73;;;6.47;;
13432;SDS011;6789;47.678;9.158;2023-11-22T17:01:27;10.63;;;6.43;;
13432;SDS011;6789;47.678;9.158;2023-11-22T17:06:19;11.67;;;7.10;;
13432;SDS011;6789;47.678;9.158;2023-11-22T17:11:11;9.80;;;6.47;;
13432;SDS011;6789;47.678;9.158;2023-11-22T17:16:02;9.43;;;6.63;;
13432;SDS011;6789;47.678;9.158;2023-11-22T17:20:54;12.27;;;7.43;;
13432;SDS011;6789;47.678;9.158;2023-11-22T17:25:47;8.63;;;5.50;;
13432;SDS011;6789;47.678;9.158;2023-11-22T17:30:39;9.47;;;6.10;;
13432;SDS011;6789;47.678;9.158;2023-11-22T17:40:33;12.43;;;8.10;;
13432;SDS011;6789;47.678;9.158;2023-11-22T17:45:24;9.10;;;6.37;;
13432;SDS011;6789;47.678;9.158;2023-11-22T17:50:16;8.20;;;6.30;;
13432;SDS011;6789;47.678;9.158;2023-11-22T17:55:09;10.70;;;6.87;;
13432;SDS011;6789;47.678;9.158;2023-11-22T18:00:01;10.20;;;7.20;;
13432;SDS011;6789;47.678;9.158;2023-11-22T18:09:56;8.80;;;6.43;;
13432;SDS011;6789;47.678;9.158;2023-11-22T18:14:48;10.33;;;5.80;;
13432;SDS011;6789;47.678;9.158;2023-11-22T18:19:40;10.40;;;7.10;;
13432;SDS011;6789;47.678;9.158;2023-11-22T18:24:32;11.60;;;6.37;;
13432;SDS011;6789;47.678;9.158;2023-11-22T18:29:24;9.07;;;6.80;;
13432;SDS011;6789;47.678;9.158;2023-11-22T18:34:18;9.00;;;6.07;;
13432;SDS011;6789;47.678;9.158;2023-11-22T18:39:10;11.70;;;7.20;;
13432;SDS011;6789;47.678;9.158;2023-11-22T18:44:02;8.43;;;6.07;;
13432;SDS011;6789;47.678;9.158;2023-11-22T18:48:55;11.37;;;7.17;;
13432;SDS011;6789;47.678;9.158;2023-11-22T18:53:48;9.30;;;7.00;;
13432;SDS011;6789;47.678;9.158;2023-11-22T18:58:40;11.33;;;6.70;;
13432;SDS011;6789;47.678;9.158;2023-11-22T19:03:32;10.23;;;6.93;;
13432;SDS011;6789;47.678;9.158;2023-11-22T19:08:24;9.97;;;6.43;;
13432;SDS011;6789;47.678;9.158;2023-11-22T19:13:16;9.53;;;6.30;;
13432;SDS011;6789;47.678;9.158;2023-11-22T19:18:07;9.37;;;6.03;;
13432;SDS011;6789;47.678;9.158;2023-11-22T19:23:00;8.13;;;6.10;;
13432;SDS011;6789;47.678;9.158;2023-11-22T19:27:52;11.57;;;6.10;;
13432;SDS011;6789;47.678;9.158;2023-11-22T19:32:43;10.20;;;6.17;;
13432;SDS011;6789;47.678;9.158;2023-11-22T19:37:37;8.30;;;6.37;;
13432;SDS011;6789;47.678;9.158;2023-11-22T19:42:28;9.90;;;6.43;;
13432;SDS011;6789;47.678;9.158;2023-11-22T19:47:20;9.27;;;6.60;;
13432;SDS011;6789;47.678;9.158;2023-11-22T19:52:12;9.73;;;6.67;;
13432;SDS011;6789;47.678;9.158;2023-11-22T19:57:07;9.17;;;6.50;;
13432;SDS011;6789;47.678;9.158;2023-11-22T20:02:01;10.40;;;6.57;;
13432;SDS011;6789;47.678;9.158;2023-11-22T20:06:54;7.80;;;5.97;;
13432;SDS011;6789;47.678;9.158;2023-11-22T20:11:46;10.97;;;6.43;;
13432;SDS011;6789;47.678;9.158;2023-11-22T20:16:37;10.60;;;7.27;;
13432;SDS011;6789;47.678;9.158;2023-11-22T20:21:29;9.20;;;6.37;;
13432;SDS011;6789;47.678;9.158;2023-11-22T20:26:21;10.73;;;6.93;;
13432;SDS011;6789;47.678;9.158;2023-11-22T20:31:13;10.67;;;6.53;;
13432;SDS011;6789;47.678;9.158;2023-11-22T20:36:11;10.93;;;7.23;;
13432;SDS011;6789;47.678;9.158;2023-11-22T20:41:05;12.20;;;7.33;;
13432;SDS011;6789;47.678;9.158;2023-11-22T20:45:56;11.40;;;6.87;;
13432;SDS011;6789;47.678;9.158;2023-11-22T20:50:49;10.63;;;7.30;;
13432;SDS011;6789;47.678;9.158;2023-11-22T20:55:41;10.90;;;7.13;;
13432;SDS011;6789;47.678;9.158;2023-11-22T21:00:33;8.77;;;6.60;;
13432;SDS011;6789;47.678;9.158;2023-11-22T21:05:25;10.83;;;7.07;;
13432;SDS011;6789;47.678;9.158;2023-11-22T21:10:16;12.43;;;7.57;;
13432;SDS011;6789;47.678;9.158;2023-11-22T21:15:08;11.60;;;7.03;;
13432;SDS011;6789;47.678;9.158;2023-11-22T21:20:00;11.53;;;7.53;;
13432;SDS011;6789;47.678;9.158;2023-11-22T21:24:58;10.30;;;7.23;;
13432;SDS011;6789;47.678;9.158;2023-11-22T21:29:50;9.93;;;7.10;;
13432;SDS011;6789;47.678;9.158;2023-11-22T21:34:42;10.47;;;7.20;;
13432;SDS011;6789;47.678;9.158;2023-11-22T21:39:33;9.90;;;6.37;;
13432;SDS011;6789;47.678;9.158;2023-11-22T21:44:25;9.63;;;6.63;;
13432;SDS011;6789;47.678;9.158;2023-11-22T21:49:17;9.27;;;6.40;;
13432;SDS011;6789;47.678;9.158;2023-11-22T21:54:09;9.67;;;6.93;;
13432;SDS011;6789;47.678;9.158;2023-11-22T21:59:01;12.53;;;7.23;;
13432;SDS011;6789;47.678;9.158;2023-11-22T22:03:53;10.73;;;7.83;;
13432;SDS011;6789;47.678;9.158;2023-11-22T22:08:45;12.23;;;7.37;;
13432;SDS011;6789;47.678;9.158;2023-11-22T22:13:39;10.67;;;7.07;;
13432;SDS011;6789;47.678;9.158;2023-11-22T22:18:32;11.43;;;7.23;;
13432;SDS011;6789;47.678;9.158;2023-11-22T22:23:24;11.80;;;6.57;;
13432;SDS011;6789;47.678;9.158;2023-11-22T22:28:15;10.80;;;7.00;;
13432;SDS011;6789;47.678;9.158;2023-11-22T22:33:07;11.73;;;6.80;;
13432;SDS011;6789;47.678;9.158;2023-11-22T22:37:59;10.53;;;6.67;;
13432;SDS011;6789;47.678;9.158;2023-11-22T22:42:51;10.97;;;7.03;;
13432;SDS011;6789;47.678;9.158;2023-11-22T22:47:43;9.40;;;6.50;;
13432;SDS011;6789;47.678;9.158;2023-11-22T22:52:35;16.00;;;7.57;;
13432;SDS011;6789;47.678;9.158;2023-11-22T22:57:27;12.40;;;7.70;;
13432;SDS011;6789;47.678;9.158;2023-11-22T23:02:20;12.87;;;7.73;;
13432;SDS011;6789;47.678;9.158;2023-11-22T23:07:18;11.73;;;6.57;;
13432;SDS011;6789;47.678;9.158;2023-11-22T23:12:29;11.70;;;7.23;;
13432;SDS011;6789;47.678;9.158;2023-11-22T23:17:21;12.40;;;8.20;;
13432;SDS011;6789;47.678;9.158;2023-11-22T23:22:12;12.57;;;7.50;;
13432;SDS011;6789;47.678;9.158;2023-11-22T23:27:04;11.00;;;7.50;;
13432;SDS011;6789;47.678;9.158;2023-11-22T23:31:57;12.07;;;7.77;;
13432;SDS011;6789;47.678;9.158;2023-11-22T23:36:49;11.97;;;7.53;;
13432;SDS011;6789;47.678;9.158;2023-11-22T23:41:40;10.53;;;7.17;;
13432;SDS011;6789;47.678;9.158;2023-11-22T23:46:32;10.53;;;7.70;;
13432;SDS011;6789;47.678;9.158;2023-11-22T23:51:28;11.93;;;7.20;;
13432;SDS011;6789;47.678;9.158;2023-11-22T23:56:20;11.07;;;7.17;;
